Time;durP1;ratioP1;P1;durP2;ratioP2;P2;SDS_P1;SDS_P2;PMS_P1;PMS_P2;Temp;Humidity;BMP_temperature;BMP_pressure;BME280_temperature;BME280_humidity;BME280_pressure;Samples;Min_cycle;Max_cycle;Signal;HPM_P1;HPM_P2
2021/07/06 01:39:45;;;;;;;;;;;;;;;;;;;;;
2021/07/06 02:18:34;;;;;;;11.15;9.93;;;;;;;19.92;100.00;99905.09;1311456;104;21261;-89
2021/07/06 02:21:07;;;;;;;11.15;10.15;;;;;;;19.93;100.00;99910.69;1305456;107;21756;-91
2021/07/06 02:24:12;;;;;;;;;;;;;;;;;;;;;
2021/07/06 02:27:13;;;;;;;15.28;10.85;;;;;;;19.97;100.00;99904.02;1271986;108;21460;-92
2021/07/06 02:56:37;;;;;;;12.25;11.00;;;;;;;20.09;100.00;99922.79;1239145;112;21295;-89
2021/07/06 02:59:13;;;;;;;13.18;12.03;;;;;;;20.10;100.00;99933.16;1233436;111;21185;-92
2021/07/06 03:01:57;;;;;;;;;;;;;;;;;;;;;
2021/07/06 03:04:24;;;;;;;12.53;11.30;;;;;;;20.11;100.00;99930.83;1319343;101;21128;-91
2021/07/06 03:06:59;;;;;;;13.15;12.05;;;;;;;20.13;100.00;99934.09;1390104;99;21627;-91
2021/07/06 03:09:38;;;;;;;13.22;12.03;;;;;;;20.15;100.00;99942.63;1411580;98;21178;-92
2021/07/06 03:12:04;;;;;;;13.25;12.13;;;;;;;20.17;100.00;99935.33;1421602;99;21228;-91
2021/07/06 03:15:01;;;;;;;;;;;;;;;;;;;;;
2021/07/06 03:21:05;;;;;;;;;;;;;;;;;;;;;
2021/07/06 03:39:08;;;;;;;15.35;12.53;;;;;;;20.49;100.00;99942.30;1308027;106;21227;-90
2021/07/06 03:41:44;;;;;;;16.35;12.53;;;;;;;20.51;100.00;99941.28;1312196;107;21204;-88
2021/07/06 03:44:11;;;;;;;13.75;12.37;;;;;;;20.51;100.00;99943.41;1314584;103;21706;-92
2021/07/06 03:46:40;;;;;;;13.75;12.45;;;;;;;20.53;100.00;99947.20;1408786;98;21196;-91
2021/07/06 03:49:22;;;;;;;13.75;12.50;;;;;;;20.55;100.00;99949.95;1435302;95;21051;-90
2021/07/06 03:51:44;;;;;;;13.83;12.63;;;;;;;20.56;100.00;99951.59;1501333;93;21956;-91
2021/07/06 03:54:28;;;;;;;;;;;;;;;;;;;;;
2021/07/06 03:57:03;;;;;;;;;;;;;;;;;;;;;
2021/07/06 04:02:32;;;;;;;;;;;;;;;;;;;;;
2021/07/06 04:05:10;;;;;;;;;;;;;;;;;;;;;
2021/07/06 04:08:30;;;;;;;;;;;;;;;;;;;;;
2021/07/06 04:13:52;;;;;;;;;;;;;;;;;;;;;
2021/07/06 04:17:11;;;;;;;;;;;;;;;;;;;;;
2021/07/06 04:19:58;;;;;;;;;;;;;;;;;;;;;
2021/07/06 04:22:34;;;;;;;;;;;;;;;;;;;;;
2021/07/06 04:25:40;;;;;;;;;;;;;;;;;;;;;
2021/07/06 04:28:30;;;;;;;;;;;;;;;;;;;;;
2021/07/06 04:34:54;;;;;;;14.73;13.22;;;;;;;20.93;100.00;99946.84;1262850;109;22202;-90
2021/07/06 04:37:26;;;;;;;15.20;13.80;;;;;;;21.01;100.00;99945.86;1288856;107;21183;-91
2021/07/06 04:40:00;;;;;;;15.60;14.07;;;;;;;21.08;100.00;99940.06;1357157;104;21138;-90
2021/07/06 04:43:09;;;;;;;;;;;;;;;;;;;;;
2021/07/06 04:45:49;;;;;;;15.63;14.23;;;;;;;21.25;100.00;99946.30;1365987;102;21217;-92
2021/07/06 05:34:53;;;;;;;14.43;13.13;;;;;;;21.44;100.00;99978.58;1264100;110;21339;-91
2021/07/06 06:17:21;;;;;;;15.05;13.58;;;;;;;22.88;100.00;99984.27;1259305;111;21244;-94
2021/07/06 06:19:58;;;;;;;14.87;13.70;;;;;;;22.85;100.00;99988.97;1219847;112;21416;-93
2021/07/06 06:22:29;;;;;;;14.60;13.38;;;;;;;22.83;100.00;99990.21;1232530;113;21219;-91
2021/07/06 06:24:56;;;;;;;14.93;13.58;;;;;;;22.75;100.00;99995.76;1298374;103;21259;-91
2021/07/06 06:27:23;;;;;;;16.05;14.75;;;;;;;22.67;100.00;100001.61;1367075;98;21197;-92
2021/07/06 06:29:50;;;;;;;15.53;13.88;;;;;;;22.66;100.00;100001.83;1499456;91;21097;-91
2021/07/06 06:32:17;;;;;;;14.20;13.00;;;;;;;22.66;100.00;99999.98;1502152;92;21062;-91
2021/07/06 06:34:53;;;;;;;13.78;12.45;;;;;;;22.71;100.00;100008.63;1503306;93;21029;-92
2021/07/06 06:52:26;;;;;;;13.15;12.15;;;;;;;23.06;100.00;100007.45;1301182;107;21260;-91
2021/07/06 06:54:55;;;;;;;13.25;12.05;;;;;;;23.07;100.00;100011.73;1379302;101;21147;-91
2021/07/06 06:57:22;;;;;;;13.20;11.33;;;;;;;23.07;100.00;100011.23;1380937;102;21102;-91
2021/07/06 06:59:55;;;;;;;13.43;12.23;;;;;;;23.06;100.00;100014.91;1359397;102;21274;-89
2021/07/06 07:02:48;;;;;;;;;;;;;;;;;;;;;
2021/07/06 07:05:17;;;;;;;;;;;;;;;;;;;;;
2021/07/06 07:11:07;;;;;;;12.25;11.12;;;;;;;23.07;100.00;100022.35;1310775;107;21284;-89
2021/07/06 07:13:37;;;;;;;12.13;11.03;;;;;;;23.15;100.00;100022.11;1334183;104;21220;-89
2021/07/06 07:18:54;;;;;;;11.75;10.63;;;;;;;23.18;100.00;100015.58;1345734;104;21239;-91
2021/07/06 07:21:43;;;;;;;10.03;9.13;;;;;;;23.18;100.00;100020.39;1325002;105;21306;-92
2021/07/06 07:24:25;;;;;;;9.20;8.30;;;;;;;23.21;100.00;100026.59;1321580;104;21825;-89
2021/07/06 07:26:54;;;;;;;9.48;8.68;;;;;;;23.21;100.00;100031.09;1346247;104;21661;-92
2021/07/06 07:29:24;;;;;;;9.30;8.20;;;;;;;23.22;100.00;100024.23;1380166;99;21115;-92
2021/07/06 07:33:01;;;;;;;;;;;;;;;;;;;;;
2021/07/06 07:35:12;;;;;;;;;;;;;;;;;;;;;
2021/07/06 07:38:25;;;;;;;;;;;;;;;;;;;;;
2021/07/06 07:40:50;;;;;;;;;;;;;;;;;;;;;
2021/07/06 07:43:20;;;;;;;8.50;6.90;;;;;;;23.47;100.00;100034.09;1299847;108;21713;-89
2021/07/06 08:03:00;;;;;;;;;;;;;;;;;;;;;
2021/07/06 08:09:38;;;;;;;8.13;7.42;;;;;;;24.92;100.00;100044.61;1285665;108;21273;-89
2021/07/06 08:16:57;;;;;;;;;;;;;;;;;;;;;
2021/07/06 08:20:00;;;;;;;;;;;;;;;;;;;;;
2021/07/06 08:30:09;;;;;;;9.50;8.50;;;;;;;24.65;100.00;100058.23;1311707;106;21241;-91
2021/07/06 08:39:56;;;;;;;;;;;;;;;;;;;;;
2021/07/06 08:42:15;;;;;;;10.88;9.80;;;;;;;25.36;100.00;100060.41;1223979;110;21268;-91
2021/07/06 08:44:55;;;;;;;;;;;;;;;;;;;;;
2021/07/06 08:51:09;;;;;;;12.00;10.90;;;;;;;25.48;100.00;100067.97;1327718;104;21827;-93
2021/07/06 09:01:28;;;;;;;;;;;;;;;;;;;;;
2021/07/06 09:04:25;;;;;;;;;;;;;;;;;;;;;
2021/07/06 09:07:19;;;;;;;12.18;10.90;;;;;;;25.96;100.00;100058.72;1258696;111;21838;-90
2021/07/06 09:27:21;;;;;;;10.75;9.65;;;;;;;26.51;100.00;100063.41;1305047;105;21735;-90
2021/07/06 09:30:55;;;;;;;;;;;;;;;;;;;;;
2021/07/06 10:47:54;;;;;;;8.70;7.80;;;;;;;25.88;100.00;100126.52;1318764;103;21381;31
2021/07/06 11:28:01;;;;;;;15.00;6.85;;;;;;;25.42;100.00;100146.67;1321974;105;21168;-87
2021/07/06 11:34:47;;;;;;;6.90;6.40;;;;;;;25.23;100.00;100145.36;1303457;107;21298;-92
2021/07/06 11:46:15;;;;;;;10.50;6.75;;;;;;;25.15;100.00;100151.79;1361732;104;21276;-90
2021/07/06 11:48:47;;;;;;;10.28;7.15;;;;;;;25.18;100.00;100168.67;1430648;89;21090;-90
2021/07/06 12:04:44;;;;;;;;;;;;;;;;;;;;;
2021/07/06 12:07:31;;;;;;;9.53;7.72;;;;;;;23.97;100.00;100186.20;1448721;95;21845;-90
2021/07/06 12:10:32;;;;;;;9.78;7.95;;;;;;;23.74;100.00;100206.14;1371557;99;21763;-88
2021/07/06 12:13:04;;;;;;;9.60;8.45;;;;;;;23.54;100.00;100218.19;1439781;95;21142;-83
2021/07/06 12:15:55;;;;;;;;;;;;;;;;;;;;;
2021/07/06 12:18:16;;;;;;;22.98;8.53;;;;;;;23.28;100.00;100229.20;1498993;91;21127;-86
2021/07/06 12:20:54;;;;;;;20.40;8.63;;;;;;;23.19;100.00;100227.83;1549284;90;21589;-84
2021/07/06 12:23:37;;;;;;;52.85;9.98;;;;;;;23.16;100.00;100226.87;1584748;88;21169;-88
2021/07/06 12:26:04;;;;;;;14.35;9.05;;;;;;;23.08;100.00;100224.45;1478935;93;21086;-86
2021/07/06 12:28:32;;;;;;;9.80;8.80;;;;;;;22.97;100.00;100224.05;1483797;93;21084;-88
2021/07/06 12:31:30;;;;;;;39.23;10.00;;;;;;;22.90;100.00;100222.44;1574561;88;21651;-84
2021/07/06 12:34:14;;;;;;;18.32;10.00;;;;;;;22.84;100.00;100225.40;1612771;88;21481;-86
2021/07/06 12:36:49;;;;;;;36.08;11.38;;;;;;;22.79;100.00;100229.19;1577587;90;21126;-85
2021/07/06 12:39:23;;;;;;;20.45;10.23;;;;;;;22.75;100.00;100230.12;1579254;89;21180;-88
2021/07/06 12:41:56;;;;;;;13.48;10.55;;;;;;;22.73;100.00;100229.99;1564806;88;21113;-88
2021/07/06 12:44:38;;;;;;;;;;;;;;;22.71;100.00;100222.77;1548500;89;21114;-89
2021/07/06 12:47:27;;;;;;;10.80;9.18;;;;;;;22.74;100.00;100225.83;1585333;89;20608;-87
2021/07/06 12:50:22;;;;;;;10.03;9.03;;;;;;;22.78;100.00;100226.23;1564370;89;21102;-86
2021/07/06 12:53:10;;;;;;;;;;;;;;;;;;;;;
2021/07/06 12:55:35;;;;;;;10.35;9.38;;;;;;;22.91;100.00;100222.75;1484514;94;21101;-87
2021/07/06 12:58:28;;;;;;;;;;;;;;;;;;;;;
2021/07/06 13:09:08;;;;;;;8.78;7.40;;;;;;;23.50;100.00;100226.30;1456441;94;21102;-89
2021/07/06 13:20:23;;;;;;;;;;;;;;;;;;;;;
2021/07/06 13:23:19;;;;;;;9.05;8.05;;;;;;;23.59;100.00;100240.98;1427519;98;21292;-89
2021/07/06 13:26:11;;;;;;;8.45;7.58;;;;;;;23.57;100.00;100243.02;1411740;97;21251;-88
2021/07/06 13:28:43;;;;;;;7.85;6.85;;;;;;;23.56;100.00;100245.38;1402972;98;21727;-85
2021/07/06 13:45:26;;;;;;;9.08;7.92;;;;;;;23.44;100.00;100269.12;1313657;107;21134;-91
2021/07/06 14:27:37;;;;;;;;;;;;;;;;;;;;;
2021/07/06 14:38:22;;;;;;;;;;;;;;;;;;;;;
2021/07/06 15:07:01;;;;;;;7.05;6.50;;;;;;;22.80;100.00;100335.14;1270481;111;21149;-85
2021/07/06 15:09:29;;;;;;;8.57;7.77;;;;;;;22.73;100.00;100342.28;1295960;107;21188;-85
2021/07/06 15:13:00;;;;;;;;;;;;;;;;;;;;;
2021/07/06 15:20:24;;;;;;;;;;;;;;;;;;;;;
2021/07/06 16:38:34;;;;;;;7.35;6.20;;;;;;;22.33;100.00;100405.30;1583472;88;21529;-91
2021/07/06 17:58:06;;;;;;;8.78;7.92;;;;;;;20.70;100.00;100480.20;1385991;100;21745;-87
2021/07/06 18:03:55;;;;;;;9.50;8.70;;;;;;;20.67;100.00;100484.53;1422695;99;21264;-88
2021/07/06 18:06:35;;;;;;;8.50;7.70;;;;;;;20.66;100.00;100489.49;1497898;94;21218;-87
2021/07/06 18:09:22;;;;;;;8.33;7.72;;;;;;;20.64;100.00;100493.66;1430416;97;21170;-86
2021/07/06 18:19:16;;;;;;;;;;;;;;;;;;;;;
2021/07/06 18:26:09;;;;;;;;;;;;;;;;;;;;;
2021/07/06 18:28:45;;;;;;;8.78;8.08;;;;;;;20.41;100.00;100514.91;1308919;104;21196;-87
2021/07/06 18:31:14;;;;;;;9.58;8.48;;;;;;;20.36;100.00;100514.65;1315837;107;21799;-86
2021/07/06 18:34:04;;;;;;;;;;;;;;;;;;;;;
2021/07/06 18:36:35;;;;;;;9.55;8.75;;;;;;;20.29;100.00;100517.19;1293528;109;21708;-85
2021/07/06 18:39:08;;;;;;;10.55;8.53;;;;;;;20.24;100.00;100520.05;1313647;105;21196;-86
2021/07/06 18:41:36;;;;;;;9.38;8.58;;;;;;;20.22;100.00;100518.92;1371850;100;21651;-88
2021/07/06 18:44:06;;;;;;;9.58;8.78;;;;;;;20.21;100.00;100529.17;1532122;89;21203;-85
2021/07/06 18:46:33;;;;;;;10.43;9.43;;;;;;;20.17;100.00;100522.11;1558151;90;21005;-87
2021/07/06 18:49:02;;;;;;;11.43;9.45;;;;;;;20.16;100.00;100526.27;1591837;88;21109;-88
2021/07/06 18:51:30;;;;;;;9.50;8.70;;;;;;;20.15;100.00;100526.75;1543030;90;21209;-85
2021/07/06 18:53:57;;;;;;;10.43;9.33;;;;;;;20.14;100.00;100525.61;1535274;90;21138;-86
2021/07/06 18:56:25;;;;;;;9.18;8.45;;;;;;;20.13;100.00;100531.41;1590467;89;22027;-86
2021/07/06 18:58:52;;;;;;;10.32;9.43;;;;;;;20.13;100.00;100527.93;1558764;90;21082;-88
2021/07/06 19:01:21;;;;;;;9.93;9.13;;;;;;;20.13;100.00;100537.19;1587257;88;21105;-87
2021/07/06 19:03:49;;;;;;;10.00;9.20;;;;;;;20.12;100.00;100532.41;1561657;89;21176;-88
2021/07/06 19:06:16;;;;;;;11.43;9.13;;;;;;;20.10;100.00;100533.08;1587711;88;21091;-87
2021/07/06 19:08:43;;;;;;;11.38;9.45;;;;;;;20.10;100.00;100529.63;1568105;87;21126;-86
2021/07/06 19:11:10;;;;;;;11.03;9.30;;;;;;;20.09;100.00;100530.11;1554694;88;21572;-88
2021/07/06 19:13:38;;;;;;;9.58;8.78;;;;;;;20.07;100.00;100536.59;1581570;88;21127;-86
2021/07/06 19:16:07;;;;;;;9.58;8.78;;;;;;;20.07;100.00;100535.27;1580485;87;21750;-87
2021/07/06 19:18:39;;;;;;;10.30;9.50;;;;;;;20.05;100.00;100536.78;1590338;87;21124;-85
2021/07/06 19:21:09;;;;;;;10.85;9.88;;;;;;;20.05;100.00;100544.70;1585503;88;21190;-86
2021/07/06 19:32:00;;;;;;;9.80;8.90;;;;;;;19.98;100.00;100553.03;1594402;88;21156;-87
2021/07/06 19:34:29;;;;;;;9.98;9.00;;;;;;;19.96;100.00;100551.06;1598835;88;21966;-88
2021/07/06 19:36:58;;;;;;;11.25;9.68;;;;;;;19.93;100.00;100544.80;1557299;87;21183;-86
2021/07/06 19:39:25;;;;;;;11.85;9.03;;;;;;;19.92;100.00;100550.59;1565908;89;21119;-88
2021/07/06 19:41:52;;;;;;;10.55;9.28;;;;;;;19.91;100.00;100543.67;1549861;90;21122;-86
2021/07/06 19:44:19;;;;;;;9.13;8.33;;;;;;;19.90;100.00;100547.30;1554074;90;21104;-87
2021/07/06 19:46:46;;;;;;;9.73;8.78;;;;;;;19.88;100.00;100543.20;1555472;89;21551;-87
2021/07/06 19:49:15;;;;;;;9.50;8.70;;;;;;;19.86;100.00;100550.00;1567176;89;21624;-85
2021/07/06 19:51:42;;;;;;;9.58;8.68;;;;;;;19.84;100.00;100559.40;1583960;88;21103;-85
2021/07/06 19:54:09;;;;;;;9.15;8.33;;;;;;;19.82;100.00;100554.78;1596863;87;21683;-83
2021/07/06 19:56:37;;;;;;;9.05;8.18;;;;;;;19.80;100.00;100554.61;1586415;88;21172;-88
2021/07/06 19:59:05;;;;;;;9.38;8.58;;;;;;;19.77;100.00;100558.44;1563735;88;21203;-88
2021/07/06 20:01:32;;;;;;;10.15;8.95;;;;;;;19.75;100.00;100559.11;1584670;88;21603;-86
2021/07/06 20:04:01;;;;;;;10.65;9.03;;;;;;;19.71;100.00;100565.76;1584051;89;21119;-87
2021/07/06 20:06:28;;;;;;;9.85;8.90;;;;;;;19.66;100.00;100559.69;1551143;90;21571;-90
2021/07/06 20:08:59;;;;;;;10.50;9.38;;;;;;;19.63;100.00;100565.81;1554169;89;21211;-88
2021/07/06 20:11:30;;;;;;;9.78;8.90;;;;;;;19.60;100.00;100563.52;1558574;88;21282;-86
2021/07/06 20:14:02;;;;;;;10.30;9.10;;;;;;;19.57;100.00;100565.21;1583840;89;21116;-88
2021/07/06 20:16:30;;;;;;;;;;;;;;;19.53;100.00;100564.23;1556292;90;21677;-85
2021/07/06 20:18:58;;;;;;;11.50;9.50;;;;;;;19.51;100.00;100564.09;1553039;90;20161;-86
2021/07/06 20:21:27;;;;;;;10.03;9.13;;;;;;;19.49;100.00;100564.75;1580460;89;21081;-86
2021/07/06 20:23:56;;;;;;;9.93;9.03;;;;;;;19.47;100.00;100562.81;1586303;90;21532;-88
2021/07/06 20:26:23;;;;;;;9.73;8.73;;;;;;;19.44;100.00;100565.78;1587383;88;21783;-86
2021/07/06 20:28:51;;;;;;;10.82;9.78;;;;;;;19.39;100.00;100571.08;1561058;90;21692;-86
2021/07/06 20:31:18;;;;;;;11.08;8.73;;;;;;;19.37;100.00;100570.45;1611533;88;21140;-88
2021/07/06 20:33:45;;;;;;;10.53;9.43;;;;;;;19.37;100.00;100572.25;1558910;90;21010;-84
2021/07/06 20:36:12;;;;;;;10.23;9.20;;;;;;;19.36;100.00;100567.48;1559780;90;21142;-89
2021/07/06 20:38:39;;;;;;;10.03;9.03;;;;;;;19.37;100.00;100573.09;1560389;90;21602;-85
2021/07/06 20:41:06;;;;;;;9.35;8.48;;;;;;;19.35;100.00;100569.80;1583184;90;21980;-88
2021/07/06 20:43:33;;;;;;;11.73;8.73;;;;;;;19.34;100.00;100566.83;1585015;89;21137;-83
2021/07/06 20:46:00;;;;;;;10.85;9.10;;;;;;;19.34;100.00;100569.47;1585977;88;21041;-84
2021/07/06 20:48:27;;;;;;;12.47;9.05;;;;;;;19.33;100.00;100568.33;1553816;90;21094;-88
2021/07/06 20:50:54;;;;;;;9.40;8.50;;;;;;;19.32;100.00;100577.24;1583721;88;21537;-83
2021/07/06 20:53:21;;;;;;;10.63;9.08;;;;;;;19.31;100.00;100571.64;1601680;88;21017;-89
2021/07/06 20:55:49;;;;;;;9.23;8.35;;;;;;;19.30;100.00;100571.30;1580944;88;21585;-86
2021/07/06 20:58:16;;;;;;;9.18;8.33;;;;;;;19.29;100.00;100569.66;1583800;90;21086;-86
2021/07/06 21:00:44;;;;;;;11.83;8.98;;;;;;;19.28;100.00;100572.81;1584762;89;22957;-85
2021/07/06 21:03:11;;;;;;;9.93;8.73;;;;;;;19.26;100.00;100568.19;1610517;87;21572;-86
2021/07/06 21:05:38;;;;;;;10.55;8.75;;;;;;;19.23;100.00;100574.65;1574273;88;21112;-89
2021/07/06 21:08:06;;;;;;;9.83;8.83;;;;;;;19.23;100.00;100564.57;1585504;89;21107;-89
2021/07/06 21:10:34;;;;;;;9.95;8.95;;;;;;;19.21;100.00;100571.34;1590435;88;21156;-85
2021/07/06 21:13:01;;;;;;;9.48;8.58;;;;;;;19.21;100.00;100573.98;1605763;88;22036;-85
2021/07/06 21:15:28;;;;;;;10.23;9.08;;;;;;;19.19;100.00;100569.37;1587330;89;21097;-89
2021/07/06 21:17:57;;;;;;;9.55;8.63;;;;;;;19.19;100.00;100567.25;1589275;88;21175;-87
2021/07/06 21:20:24;;;;;;;10.28;8.15;;;;;;;19.17;100.00;100567.91;1587689;88;21167;-87
2021/07/06 21:22:51;;;;;;;9.63;8.50;;;;;;;19.16;100.00;100565.78;1596541;89;21144;-88
2021/07/06 21:25:18;;;;;;;10.80;8.28;;;;;;;19.16;100.00;100570.22;1588299;88;21172;-86
2021/07/06 21:27:45;;;;;;;10.18;9.18;;;;;;;19.14;100.00;100573.05;1570687;89;21115;-84
2021/07/06 21:30:13;;;;;;;8.73;7.83;;;;;;;19.14;100.00;100574.88;1588572;88;21045;-84
2021/07/06 21:32:40;;;;;;;9.10;8.20;;;;;;;19.13;100.00;100574.55;1564181;89;21299;-86
2021/07/06 21:35:09;;;;;;;9.45;8.40;;;;;;;19.12;100.00;100573.70;1599447;88;21623;-89
2021/07/06 21:37:37;;;;;;;9.20;8.28;;;;;;;19.08;100.00;100573.23;1599289;88;21047;-86
2021/07/06 21:40:07;;;;;;;11.05;7.83;;;;;;;19.05;100.00;100575.39;1592012;88;21011;-87
2021/07/06 21:42:36;;;;;;;11.25;7.85;;;;;;;19.05;100.00;100579.34;1624660;88;21057;-84
2021/07/06 21:45:06;;;;;;;9.50;8.38;;;;;;;19.03;100.00;100580.84;1595638;88;21098;-87
2021/07/06 21:47:33;;;;;;;8.18;7.47;;;;;;;19.02;100.00;100576.56;1578913;88;21141;-85
2021/07/06 21:50:00;;;;;;;8.25;7.42;;;;;;;19.02;100.00;100579.20;1561006;89;21827;-85
2021/07/06 21:52:27;;;;;;;9.25;8.05;;;;;;;19.00;100.00;100575.91;1592477;89;21536;-86
2021/07/06 21:54:54;;;;;;;9.03;7.92;;;;;;;19.00;100.00;100576.41;1590464;89;21079;-84
2021/07/06 21:57:21;;;;;;;8.33;7.53;;;;;;;18.97;100.00;100570.98;1599659;89;21089;-87
2021/07/06 21:59:48;;;;;;;10.03;8.00;;;;;;;18.95;100.00;100570.84;1564624;89;21559;-85
2021/07/06 22:02:16;;;;;;;9.18;7.80;;;;;;;18.95;100.00;100579.56;1592896;89;20971;-87
2021/07/06 22:04:44;;;;;;;9.50;7.75;;;;;;;18.94;100.00;100585.02;1566126;89;21160;-87
2021/07/06 22:07:15;;;;;;;8.55;7.70;;;;;;;18.92;100.00;100577.25;1590099;88;21452;-86
2021/07/06 22:09:46;;;;;;;8.67;7.57;;;;;;;18.90;100.00;100577.41;1592614;89;21993;-85
2021/07/06 22:12:12;;;;;;;10.23;7.83;;;;;;;18.87;100.00;100582.20;1565907;89;21884;-86
2021/07/06 22:14:41;;;;;;;8.90;7.53;;;;;;;18.87;100.00;100582.20;1594315;89;21765;-86
2021/07/06 22:17:08;;;;;;;8.88;7.12;;;;;;;18.87;100.00;100585.65;1564787;89;21133;-86
2021/07/06 22:19:39;;;;;;;7.33;6.58;;;;;;;18.86;100.00;100583.19;1586515;89;21200;-87
2021/07/06 22:22:07;;;;;;;8.33;7.03;;;;;;;18.85;100.00;100582.38;1583754;89;21522;-85
2021/07/06 22:24:36;;;;;;;8.60;7.15;;;;;;;18.84;100.00;100586.01;1588976;88;21010;-90
2021/07/06 22:27:04;;;;;;;8.35;6.75;;;;;;;18.82;100.00;100584.03;1588059;88;21909;-88
2021/07/06 22:29:31;;;;;;;12.45;6.92;;;;;;;18.81;100.00;100593.44;1565707;89;21104;-89
2021/07/06 22:31:59;;;;;;;7.60;6.83;;;;;;;18.79;100.00;100593.59;1595614;88;21123;-87
2021/07/06 22:34:28;;;;;;;7.60;6.90;;;;;;;18.78;100.00;100594.61;1564960;89;21056;-88
2021/07/06 22:36:55;;;;;;;9.43;7.42;;;;;;;18.77;100.00;100600.88;1597035;88;21094;-87
2021/07/06 22:39:21;;;;;;;8.85;6.83;;;;;;;18.76;100.00;100600.55;1594793;88;21243;-86
2021/07/06 22:41:52;;;;;;;9.28;7.53;;;;;;;18.74;100.00;100601.20;1586851;89;22228;-88
2021/07/06 22:44:21;;;;;;;10.53;6.70;;;;;;;18.73;100.00;100599.55;1565682;89;21194;-87
2021/07/06 22:46:48;;;;;;;7.45;6.20;;;;;;;18.71;100.00;100601.53;1601241;88;21103;-89
2021/07/06 22:49:15;;;;;;;8.35;7.53;;;;;;;18.71;100.00;100602.84;1612543;88;21116;-85
2021/07/06 22:51:42;;;;;;;7.45;6.85;;;;;;;18.69;100.00;100600.90;1578420;88;21457;-89
2021/07/06 22:54:10;;;;;;;10.70;6.78;;;;;;;18.68;100.00;100601.88;1589070;89;21096;-86
2021/07/06 22:56:38;;;;;;;11.45;7.12;;;;;;;18.67;100.00;100605.00;1560576;90;21211;-89
2021/07/06 22:59:06;;;;;;;8.05;6.67;;;;;;;18.66;100.00;100606.50;1561070;90;21263;-86
2021/07/06 23:01:33;;;;;;;9.98;6.70;;;;;;;18.66;100.00;100605.18;1565179;88;21187;-86
2021/07/06 23:04:00;;;;;;;9.55;6.42;;;;;;;18.65;100.00;100610.13;1561430;90;21860;-85
2021/07/06 23:06:27;;;;;;;6.72;6.08;;;;;;;18.61;100.00;100610.95;1562141;90;21134;-86
2021/07/06 23:08:55;;;;;;;6.67;6.00;;;;;;;18.61;100.00;100612.27;1562647;90;21072;-87
2021/07/06 23:11:22;;;;;;;8.33;6.17;;;;;;;18.59;100.00;100611.61;1564582;90;21099;-88
2021/07/06 23:13:50;;;;;;;8.63;6.20;;;;;;;18.57;100.00;100610.47;1585910;90;21081;-88
2021/07/06 23:16:17;;;;;;;9.10;6.00;;;;;;;18.54;100.00;100612.14;1563011;90;21152;-86
2021/07/06 23:18:44;;;;;;;8.73;6.30;;;;;;;18.52;100.00;100612.80;1589195;89;21103;-87
2021/07/06 23:21:11;;;;;;;8.18;6.28;;;;;;;18.51;100.00;100615.61;1561476;90;21075;-89
2021/07/06 23:23:39;;;;;;;6.83;5.92;;;;;;;18.49;100.00;100614.95;1563690;90;21111;-88
2021/07/06 23:26:05;;;;;;;7.05;6.15;;;;;;;18.48;100.00;100623.84;1561696;90;21989;-86
2021/07/06 23:28:33;;;;;;;10.48;6.00;;;;;;;18.45;100.00;100621.86;1590542;90;21223;-89
2021/07/06 23:31:00;;;;;;;7.08;6.37;;;;;;;18.43;100.00;100623.83;1581812;90;21086;-88
2021/07/06 23:33:27;;;;;;;8.40;5.75;;;;;;;18.44;100.00;100631.27;1561847;90;21127;-89
2021/07/06 23:35:54;;;;;;;9.93;5.70;;;;;;;18.42;100.00;100634.55;1562981;90;21147;-84
2021/07/06 23:38:21;;;;;;;6.83;5.62;;;;;;;18.42;100.00;100633.23;1561527;90;21104;-88
2021/07/06 23:40:51;;;;;;;6.35;5.72;;;;;;;18.42;100.00;100642.46;1588082;88;21206;-87
2021/07/06 23:43:17;;;;;;;7.35;5.85;;;;;;;18.41;100.00;100643.45;1592349;88;21119;-90
2021/07/06 23:45:45;;;;;;;7.58;5.62;;;;;;;18.40;100.00;100643.11;1593510;88;21050;-89
2021/07/06 23:48:12;;;;;;;7.12;5.12;;;;;;;18.40;100.00;100647.07;1614340;88;21117;-86
2021/07/06 23:50:39;;;;;;;9.58;5.83;;;;;;;18.40;100.00;100645.75;1615884;88;21701;-88
2021/07/06 23:53:06;;;;;;;9.20;5.85;;;;;;;18.39;100.00;100642.30;1619185;87;21117;-86
2021/07/06 23:55:34;;;;;;;8.45;5.42;;;;;;;18.38;100.00;100641.97;1591943;88;21088;-89
2021/07/06 23:58:01;;;;;;;10.35;5.42;;;;;;;18.38;100.00;100646.44;1595674;88;21131;-88
